createdAt,value
2018-12-10T00:01:57.504Z,1.53
2018-12-10T00:04:31.471Z,1.60
2018-12-10T00:07:05.221Z,1.60
2018-12-10T00:09:39.254Z,1.73
2018-12-10T00:12:13.035Z,1.50
2018-12-10T00:14:47.050Z,1.60
2018-12-10T00:17:20.991Z,1.60
2018-12-10T00:19:55.028Z,1.70
2018-12-10T00:22:28.943Z,1.70
2018-12-10T00:25:02.296Z,1.53
2018-12-10T00:27:36.110Z,1.47
2018-12-10T00:30:10.135Z,1.50
2018-12-10T00:32:43.838Z,1.33
2018-12-10T00:35:17.860Z,1.30
2018-12-10T00:37:51.754Z,1.73
2018-12-10T00:40:25.774Z,1.60
2018-12-10T00:42:59.774Z,1.60
2018-12-10T00:45:33.518Z,1.90
2018-12-10T00:48:07.395Z,1.67
2018-12-10T00:50:41.434Z,2.00
2018-12-10T00:53:15.371Z,1.60
2018-12-10T00:55:49.444Z,1.83
2018-12-10T00:58:23.515Z,1.93
2018-12-10T01:01:01.195Z,1.83
2018-12-10T01:03:35.227Z,1.60
2018-12-10T01:06:09.223Z,1.57
2018-12-10T01:08:43.370Z,1.80
2018-12-10T01:11:17.172Z,1.80
2018-12-10T01:13:51.148Z,1.40
2018-12-10T01:16:25.028Z,1.57
2018-12-10T01:18:59.066Z,1.60
2018-12-10T01:21:32.855Z,1.87
2018-12-10T01:24:06.978Z,1.30
2018-12-10T01:26:40.879Z,1.80
2018-12-10T01:29:14.973Z,1.57
2018-12-10T01:31:48.779Z,1.50
2018-12-10T01:34:22.727Z,1.47
2018-12-10T01:36:56.717Z,1.50
2018-12-10T01:39:30.759Z,1.43
2018-12-10T01:42:08.563Z,1.33
2018-12-10T01:44:42.421Z,1.60
2018-12-10T01:47:20.245Z,1.43
2018-12-10T01:49:56.390Z,1.63
2018-12-10T01:52:30.272Z,1.50
2018-12-10T01:55:04.465Z,2.03
2018-12-10T01:57:38.355Z,1.60
2018-12-10T02:00:12.398Z,1.70
2018-12-10T02:02:46.514Z,1.50
2018-12-10T02:05:20.663Z,1.20
2018-12-10T02:07:58.570Z,1.60
2018-12-10T02:10:32.612Z,1.30
2018-12-10T02:13:06.626Z,1.30
2018-12-10T02:15:44.538Z,1.47
2018-12-10T02:18:18.639Z,1.47
2018-12-10T02:20:56.383Z,1.47
2018-12-10T02:23:30.406Z,1.50
2018-12-10T02:26:04.520Z,1.23
2018-12-10T02:28:44.006Z,2.23
2018-12-10T02:31:17.283Z,1.43
2018-12-10T02:33:55.537Z,1.40
2018-12-10T02:36:29.102Z,2.23
2018-12-10T02:39:04.146Z,1.23
2018-12-10T02:41:38.195Z,1.47
2018-12-10T02:44:12.327Z,1.40
2018-12-10T02:46:46.163Z,1.50
2018-12-10T02:49:20.122Z,1.70
2018-12-10T02:51:54.067Z,1.60
2018-12-10T02:54:27.770Z,1.33
2018-12-10T02:59:42.345Z,1.37
2018-12-10T03:02:16.137Z,1.23
2018-12-10T03:04:53.910Z,1.30
2018-12-10T03:07:28.048Z,1.40
2018-12-10T03:10:04.820Z,1.40
2018-12-10T03:12:40.920Z,1.40
2018-12-10T03:15:14.153Z,1.20
2018-12-10T03:17:48.237Z,1.37
2018-12-10T03:20:21.475Z,1.20
2018-12-10T03:22:55.565Z,1.60
2018-12-10T03:25:29.715Z,1.67
2018-12-10T03:28:03.708Z,1.53
2018-12-10T03:30:37.629Z,1.73
2018-12-10T03:33:11.637Z,1.20
2018-12-10T03:35:45.794Z,1.80
2018-12-10T03:38:19.851Z,1.20
2018-12-10T03:40:53.658Z,1.30
2018-12-10T03:43:27.569Z,1.43
2018-12-10T03:46:01.437Z,1.47
2018-12-10T03:48:35.430Z,1.93
2018-12-10T03:51:09.191Z,1.47
2018-12-10T03:53:43.050Z,1.87
2018-12-10T03:56:16.951Z,1.70
2018-12-10T03:58:50.788Z,1.30
2018-12-10T04:01:28.512Z,1.50
2018-12-10T04:04:02.643Z,1.70
2018-12-10T04:06:36.807Z,1.20
2018-12-10T04:09:10.766Z,1.50
2018-12-10T04:11:44.785Z,1.67
2018-12-10T04:14:18.579Z,1.80
2018-12-10T04:16:52.308Z,1.57
2018-12-10T04:19:30.345Z,1.33
2018-12-10T04:22:08.243Z,1.50
2018-12-10T04:24:42.224Z,1.43
2018-12-10T04:27:16.011Z,1.77
2018-12-10T04:29:50.028Z,1.30
2018-12-10T04:32:23.884Z,1.67
2018-12-10T04:34:55.089Z,1.80
2018-12-10T04:37:28.699Z,1.37
2018-12-10T04:40:02.776Z,1.60
2018-12-10T04:42:36.780Z,1.20
2018-12-10T04:45:10.765Z,1.20
2018-12-10T04:47:42.099Z,1.53
2018-12-10T04:50:15.760Z,1.00
2018-12-10T04:52:53.608Z,1.00
2018-12-10T04:55:27.689Z,1.17
2018-12-10T04:58:01.419Z,1.23
2018-12-10T05:00:35.252Z,1.33
2018-12-10T05:03:09.210Z,1.10
2018-12-10T05:05:43.277Z,0.90
2018-12-10T05:08:17.305Z,1.07
2018-12-10T05:10:51.336Z,1.03
2018-12-10T05:13:25.402Z,1.37
2018-12-10T05:15:59.541Z,0.80
2018-12-10T05:18:33.397Z,0.93
2018-12-10T05:21:07.423Z,1.07
2018-12-10T05:23:41.353Z,1.20
2018-12-10T05:26:15.203Z,1.37
2018-12-10T05:28:49.095Z,1.17
2018-12-10T05:31:22.916Z,1.30
2018-12-10T05:33:56.814Z,1.03
2018-12-10T05:36:30.665Z,1.23
2018-12-10T05:39:04.971Z,1.07
2018-12-10T05:41:36.445Z,1.73
2018-12-10T05:44:09.863Z,1.53
2018-12-10T05:46:45.891Z,1.50
2018-12-10T05:49:19.837Z,1.60
2018-12-10T05:51:53.692Z,1.80
2018-12-10T05:54:26.925Z,1.77
2018-12-10T05:57:04.579Z,2.03
2018-12-10T05:59:38.479Z,1.87
2018-12-10T06:02:12.561Z,2.00
2018-12-10T06:04:46.387Z,2.10
2018-12-10T06:07:20.361Z,2.70
2018-12-10T06:09:54.476Z,2.00
2018-12-10T06:12:28.656Z,1.80
2018-12-10T06:15:05.704Z,2.23
2018-12-10T06:17:39.837Z,2.07
2018-12-10T06:20:13.583Z,2.60
2018-12-10T06:22:47.663Z,2.70
2018-12-10T06:25:21.488Z,2.40
2018-12-10T06:27:55.612Z,2.70
2018-12-10T06:30:33.253Z,2.83
2018-12-10T06:33:07.429Z,2.10
2018-12-10T06:35:41.425Z,2.13
2018-12-10T06:38:15.255Z,2.20
2018-12-10T06:40:49.139Z,2.40
2018-12-10T06:43:22.818Z,2.80
2018-12-10T06:45:56.663Z,2.27
2018-12-10T06:48:30.573Z,2.10
2018-12-10T06:51:04.398Z,2.47
2018-12-10T06:53:38.532Z,2.13
2018-12-10T06:56:12.644Z,2.00
2018-12-10T06:58:46.504Z,2.27
2018-12-10T07:01:20.498Z,2.30
2018-12-10T07:03:54.525Z,1.87
2018-12-10T07:06:28.424Z,2.53
2018-12-10T07:09:02.270Z,2.50
2018-12-10T07:11:36.302Z,2.23
2018-12-10T07:14:10.056Z,2.40
2018-12-10T07:16:44.031Z,2.20
2018-12-10T07:19:18.127Z,2.37
2018-12-10T07:29:34.212Z,2.57
2018-12-10T07:32:08.460Z,2.60
2018-12-10T07:34:43.330Z,2.67
2018-12-10T07:37:17.949Z,2.53
2018-12-10T07:39:51.995Z,2.17
2018-12-10T07:42:25.934Z,2.40
2018-12-10T07:45:04.099Z,2.67
2018-12-10T07:47:37.804Z,2.53
2018-12-10T07:50:08.901Z,1.97
2018-12-10T07:52:42.434Z,2.37
2018-12-10T07:55:16.395Z,2.60
2018-12-10T07:57:54.341Z,2.57
2018-12-10T08:00:32.624Z,2.53
2018-12-10T08:03:06.533Z,2.60
2018-12-10T08:05:40.152Z,2.10
2018-12-10T08:08:14.116Z,2.40
2018-12-10T08:10:48.229Z,1.87
2018-12-10T08:13:22.139Z,2.13
2018-12-10T08:15:59.272Z,1.87
2018-12-10T08:18:32.987Z,2.07
2018-12-10T08:21:06.998Z,2.17
2018-12-10T08:23:40.922Z,2.07
2018-12-10T08:26:14.144Z,2.10
2018-12-10T08:28:48.297Z,2.00
2018-12-10T08:31:22.132Z,2.37
2018-12-10T08:33:55.928Z,1.77
2018-12-10T08:36:29.727Z,2.30
2018-12-10T08:39:05.649Z,2.63
2018-12-10T08:41:39.660Z,2.57
2018-12-10T08:44:21.189Z,2.03
2018-12-10T08:46:54.490Z,2.00
2018-12-10T08:49:28.347Z,2.33
2018-12-10T08:52:02.100Z,2.13
2018-12-10T08:54:36.085Z,2.30
2018-12-10T08:57:10.004Z,2.10
2018-12-10T08:59:43.970Z,2.50
2018-12-10T09:02:21.675Z,2.07
2018-12-10T09:04:55.725Z,2.20
2018-12-10T09:07:33.464Z,2.10
2018-12-10T09:10:09.638Z,2.37
2018-12-10T09:12:47.106Z,2.00
2018-12-10T09:15:27.152Z,2.10
2018-12-10T09:18:00.494Z,2.60
2018-12-10T09:20:34.369Z,2.47
2018-12-10T09:23:08.488Z,2.20
2018-12-10T09:25:39.605Z,2.07
2018-12-10T09:28:19.464Z,2.17
2018-12-10T09:30:49.626Z,2.27
2018-12-10T09:33:23.867Z,2.37
2018-12-10T09:36:01.577Z,1.80
2018-12-10T09:38:35.582Z,1.97
2018-12-10T09:41:09.584Z,2.10
2018-12-10T09:43:43.782Z,1.80
2018-12-10T09:46:17.560Z,2.20
2018-12-10T09:48:51.307Z,1.93
2018-12-10T09:51:25.356Z,1.83
2018-12-10T09:54:01.296Z,1.83
2018-12-10T09:56:37.327Z,1.83
2018-12-10T09:59:10.592Z,2.20
2018-12-10T10:01:44.540Z,2.20
2018-12-10T10:04:18.463Z,2.10
2018-12-10T10:06:52.464Z,2.37
2018-12-10T10:09:27.612Z,1.93
2018-12-10T10:12:01.468Z,2.00
2018-12-10T10:14:39.233Z,2.27
2018-12-10T10:17:12.489Z,2.07
2018-12-10T10:19:46.256Z,1.93
2018-12-10T10:22:20.153Z,2.20
2018-12-10T10:24:54.173Z,2.57
2018-12-10T10:27:27.920Z,2.20
2018-12-10T10:30:05.835Z,2.10
2018-12-10T10:32:39.255Z,2.10
2018-12-10T10:35:13.286Z,2.43
2018-12-10T10:37:50.922Z,2.30
2018-12-10T10:40:25.494Z,2.00
2018-12-10T10:43:03.000Z,2.13
2018-12-10T10:45:36.848Z,2.37
2018-12-10T10:48:16.067Z,2.27
2018-12-10T10:50:49.396Z,2.10
2018-12-10T10:53:23.409Z,2.10
2018-12-10T10:55:57.335Z,2.33
2018-12-10T10:58:31.421Z,2.43
2018-12-10T11:01:13.029Z,2.27
2018-12-10T11:03:46.436Z,2.00
2018-12-10T11:06:20.341Z,1.90
2018-12-10T11:08:56.394Z,2.57
2018-12-10T11:11:30.380Z,2.00
2018-12-10T11:14:01.517Z,2.03
2018-12-10T11:16:35.210Z,2.07
2018-12-10T11:19:09.120Z,1.80
2018-12-10T11:21:40.365Z,2.00
2018-12-10T11:24:14.059Z,1.60
2018-12-10T11:26:48.025Z,1.50
2018-12-10T11:29:21.926Z,1.73
2018-12-10T11:31:55.747Z,1.80
2018-12-10T11:34:29.450Z,1.97
2018-12-10T11:37:03.366Z,1.67
2018-12-10T11:39:37.402Z,1.60
2018-12-10T11:42:10.669Z,1.37
2018-12-10T11:44:44.585Z,1.40
2018-12-10T11:47:22.515Z,1.83
2018-12-10T11:49:56.480Z,1.33
2018-12-10T11:52:30.366Z,1.50
2018-12-10T11:55:04.076Z,1.40
2018-12-10T11:57:38.031Z,1.30
2018-12-10T12:00:15.695Z,1.60
2018-12-10T12:02:49.590Z,1.00
2018-12-10T12:05:23.461Z,1.13
2018-12-10T12:08:00.550Z,1.30
2018-12-10T12:10:33.935Z,1.63
2018-12-10T12:13:07.840Z,1.37
2018-12-10T12:15:41.693Z,1.30
2018-12-10T12:18:14.900Z,1.40
2018-12-10T12:20:48.853Z,1.37
2018-12-10T12:23:22.853Z,1.30
2018-12-10T12:25:56.884Z,1.30
2018-12-10T12:28:32.678Z,1.07
2018-12-10T12:31:05.961Z,1.50
2018-12-10T12:33:51.255Z,1.30
2018-12-10T12:36:25.039Z,1.17
2018-12-10T12:38:59.317Z,1.03
2018-12-10T12:41:29.964Z,1.30
2018-12-10T12:44:04.475Z,1.00
2018-12-10T12:46:38.504Z,1.30
2018-12-10T12:49:12.296Z,0.80
2018-12-10T12:51:46.360Z,1.30
2018-12-10T12:54:20.481Z,1.47
2018-12-10T12:56:54.226Z,1.20
2018-12-10T12:59:28.131Z,1.40
2018-12-10T13:02:03.908Z,1.23
2018-12-10T13:04:51.855Z,1.50
2018-12-10T13:07:28.626Z,1.30
2018-12-10T13:10:06.578Z,0.90
2018-12-10T13:12:39.832Z,0.90
2018-12-10T13:15:13.988Z,1.17
2018-12-10T13:17:48.432Z,1.10
2018-12-10T13:20:21.843Z,1.17
2018-12-10T13:22:55.871Z,0.90
2018-12-10T13:25:33.830Z,0.80
2018-12-10T13:28:11.840Z,1.00
2018-12-10T13:30:46.787Z,0.73
2018-12-10T13:33:22.932Z,1.00
2018-12-10T13:35:58.946Z,0.90
2018-12-10T13:38:36.734Z,1.00
2018-12-10T13:46:16.285Z,1.00
2018-12-10T13:48:50.360Z,1.10
2018-12-10T13:51:24.403Z,1.00
2018-12-10T13:53:58.532Z,1.10
2018-12-10T13:56:32.435Z,1.10
2018-12-10T13:59:06.552Z,0.83
2018-12-10T14:01:40.569Z,0.97
2018-12-10T14:04:23.577Z,0.90
2018-12-10T14:06:57.408Z,0.87
2018-12-10T14:09:31.139Z,1.20
2018-12-10T14:12:04.989Z,1.10
2018-12-10T14:14:50.417Z,1.20
2018-12-10T14:17:23.982Z,0.90
2018-12-10T14:19:57.972Z,2.50
2018-12-10T14:22:32.140Z,1.30
2018-12-10T14:25:05.912Z,1.40
2018-12-10T14:27:39.340Z,1.43
2018-12-10T14:30:13.234Z,1.20
2018-12-10T14:32:47.389Z,1.00
2018-12-10T14:35:21.321Z,1.37
2018-12-10T14:37:54.548Z,1.40
2018-12-10T14:40:28.575Z,1.13
2018-12-10T14:43:02.396Z,1.30
2018-12-10T14:48:10.052Z,1.30
2018-12-10T14:50:43.958Z,1.53
2018-12-10T14:53:19.895Z,1.50
2018-12-10T14:55:53.884Z,1.77
2018-12-10T14:58:31.603Z,1.60
2018-12-10T15:01:05.742Z,1.30
2018-12-10T15:03:39.229Z,1.10
2018-12-10T15:06:13.412Z,1.60
2018-12-10T15:08:47.090Z,1.60
2018-12-10T15:11:18.152Z,1.60
2018-12-10T15:13:52.062Z,1.40
2018-12-10T15:16:25.966Z,1.33
2018-12-10T15:18:59.904Z,1.50
2018-12-10T15:21:33.933Z,1.87
2018-12-10T15:24:11.776Z,1.33
2018-12-10T15:26:47.951Z,1.50
2018-12-10T15:29:21.967Z,1.67
2018-12-10T15:31:55.945Z,1.70
2018-12-10T15:34:29.934Z,1.50
2018-12-10T15:37:04.013Z,1.73
2018-12-10T15:39:38.055Z,1.40
2018-12-10T15:42:11.989Z,1.93
2018-12-10T15:44:45.820Z,1.40
2018-12-10T15:47:19.885Z,1.50
2018-12-10T15:49:53.696Z,1.40
2018-12-10T15:52:27.736Z,1.63
2018-12-10T15:55:00.956Z,1.33
2018-12-10T15:57:38.769Z,1.57
2018-12-10T16:00:12.209Z,1.27
2018-12-10T16:02:46.115Z,1.10
2018-12-10T16:05:20.576Z,1.60
2018-12-10T16:07:54.597Z,1.40
2018-12-10T16:10:28.227Z,1.60
2018-12-10T16:13:01.911Z,1.20
2018-12-10T16:15:35.681Z,1.27
2018-12-10T16:18:09.669Z,1.60
2018-12-10T16:20:43.515Z,1.27
2018-12-10T16:23:19.430Z,1.30
2018-12-10T16:25:53.275Z,1.13
2018-12-10T16:28:27.108Z,1.43
2018-12-10T16:31:01.125Z,1.30
2018-12-10T16:33:34.831Z,1.50
2018-12-10T16:36:13.215Z,1.30
2018-12-10T16:38:46.863Z,1.20
2018-12-10T16:41:20.844Z,1.50
2018-12-10T16:43:58.659Z,2.07
2018-12-10T16:46:34.644Z,1.80
2018-12-10T16:49:08.670Z,1.70
2018-12-10T16:51:42.343Z,1.80
2018-12-10T16:54:15.644Z,1.03
2018-12-10T16:56:49.412Z,1.53
2018-12-10T16:59:23.352Z,1.73
2018-12-10T17:01:57.234Z,1.50
2018-12-10T17:04:31.310Z,1.20
2018-12-10T17:07:06.160Z,1.70
2018-12-10T17:09:44.262Z,1.40
2018-12-10T17:12:17.761Z,1.37
2018-12-10T17:14:55.704Z,1.37
2018-12-10T17:17:30.061Z,1.50
2018-12-10T17:20:04.715Z,1.30
2018-12-10T17:22:37.904Z,1.83
2018-12-10T17:25:11.749Z,1.90
2018-12-10T17:27:45.649Z,1.90
2018-12-10T17:30:19.680Z,1.50
2018-12-10T17:32:53.536Z,2.10
2018-12-10T17:35:31.211Z,1.80
2018-12-10T17:38:05.460Z,1.80
2018-12-10T17:40:38.809Z,1.40
2018-12-10T17:43:12.611Z,1.60
2018-12-10T17:45:46.720Z,2.00
2018-12-10T17:48:21.124Z,1.70
2018-12-10T17:50:58.405Z,1.83
2018-12-10T17:53:32.289Z,1.60
2018-12-10T17:56:05.649Z,1.70
2018-12-10T17:58:46.560Z,1.63
2018-12-10T18:01:20.404Z,1.70
2018-12-10T18:03:58.222Z,1.60
2018-12-10T18:06:35.405Z,1.97
2018-12-10T18:09:11.451Z,1.87
2018-12-10T18:11:45.415Z,2.10
2018-12-10T18:14:19.015Z,1.87
2018-12-10T18:16:52.863Z,2.10
2018-12-10T18:19:26.997Z,2.50
2018-12-10T18:22:02.949Z,2.10
2018-12-10T18:24:37.088Z,1.90
2018-12-10T18:27:11.352Z,2.20
2018-12-10T18:29:44.795Z,2.10
2018-12-10T18:32:18.949Z,3.33
2018-12-10T18:34:52.788Z,2.63
2018-12-10T18:37:27.073Z,2.60
2018-12-10T18:40:00.809Z,2.40
2018-12-10T18:42:34.716Z,2.27
2018-12-10T18:45:10.437Z,2.00
2018-12-10T18:47:43.711Z,2.77
2018-12-10T18:50:17.728Z,2.20
2018-12-10T18:52:51.799Z,2.57
2018-12-10T18:55:25.757Z,2.13
2018-12-10T18:57:59.877Z,1.50
2018-12-10T19:00:33.829Z,1.60
2018-12-10T19:03:11.896Z,1.37
2018-12-10T19:05:45.748Z,1.33
2018-12-10T19:08:26.384Z,1.20
2018-12-10T19:10:59.921Z,1.10
2018-12-10T19:13:37.601Z,1.20
2018-12-10T19:16:11.624Z,1.40
2018-12-10T19:18:45.439Z,1.50
2018-12-10T19:21:19.440Z,1.80
2018-12-10T19:23:53.248Z,7.70
2018-12-10T19:26:27.192Z,1.70
2018-12-10T19:29:01.184Z,2.60
2018-12-10T19:31:35.302Z,4.40
2018-12-10T19:34:09.020Z,2.13
2018-12-10T19:36:43.068Z,7.10
2018-12-10T19:39:16.980Z,2.20
2018-12-10T19:41:51.002Z,10.10
2018-12-10T19:44:25.025Z,3.93
2018-12-10T19:47:02.658Z,1.93
2018-12-10T19:49:36.808Z,1.70
2018-12-10T19:52:10.959Z,1.87
2018-12-10T19:54:48.909Z,2.40
2018-12-10T19:57:22.953Z,1.80
2018-12-10T19:59:56.762Z,1.80
2018-12-10T20:02:30.714Z,2.07
2018-12-10T20:05:05.205Z,2.13
2018-12-10T20:07:38.539Z,2.00
2018-12-10T20:10:12.657Z,2.20
2018-12-10T20:12:47.271Z,2.20
2018-12-10T20:15:30.133Z,2.20
2018-12-10T20:18:04.232Z,3.00
2018-12-10T20:20:39.164Z,3.67
2018-12-10T20:23:13.177Z,3.80
2018-12-10T20:25:47.043Z,3.30
2018-12-10T20:28:21.023Z,2.80
2018-12-10T20:30:55.669Z,3.30
2018-12-10T20:33:28.968Z,3.23
2018-12-10T20:36:04.024Z,4.60
2018-12-10T20:38:37.892Z,3.43
2018-12-10T20:41:11.959Z,3.97
2018-12-10T20:43:49.947Z,3.87
2018-12-10T20:46:23.957Z,4.00
2018-12-10T20:49:01.733Z,4.53
2018-12-10T20:51:35.557Z,4.20
2018-12-10T20:54:09.941Z,4.03
2018-12-10T20:59:17.468Z,4.70
2018-12-10T21:01:48.428Z,4.60
2018-12-10T21:04:22.253Z,4.07
2018-12-10T21:06:56.119Z,4.80
2018-12-10T21:09:30.013Z,5.10
2018-12-10T21:12:08.067Z,6.20
2018-12-10T21:14:41.909Z,6.33
2018-12-10T21:17:15.952Z,8.60
2018-12-10T21:19:49.884Z,6.53
2018-12-10T21:22:23.783Z,6.37
2018-12-10T21:24:57.483Z,5.87
2018-12-10T21:27:31.516Z,5.67
2018-12-10T21:30:07.993Z,4.97
2018-12-10T21:32:41.201Z,3.97
2018-12-10T21:35:15.108Z,4.67
2018-12-10T21:37:49.132Z,8.20
2018-12-10T21:40:23.220Z,5.83
2018-12-10T21:42:57.257Z,4.40
2018-12-10T21:45:31.198Z,4.80
2018-12-10T21:48:04.984Z,4.57
2018-12-10T21:50:38.900Z,5.00
2018-12-10T21:53:12.758Z,4.07
2018-12-10T21:55:46.489Z,4.23
2018-12-10T22:00:54.155Z,3.83
2018-12-10T22:03:31.968Z,3.93
2018-12-10T22:06:07.920Z,3.93
2018-12-10T22:08:45.650Z,3.60
2018-12-10T22:11:19.803Z,3.57
2018-12-10T22:13:53.679Z,4.10
2018-12-10T22:16:27.709Z,3.73
2018-12-10T22:19:01.633Z,3.13
2018-12-10T22:21:35.548Z,3.00
2018-12-10T22:24:09.505Z,3.97
2018-12-10T22:26:43.330Z,3.60
2018-12-10T22:29:17.343Z,3.87
2018-12-10T22:31:51.288Z,3.53
2018-12-10T22:34:25.202Z,3.67
2018-12-10T22:36:59.100Z,3.63
2018-12-10T22:39:33.144Z,3.33
2018-12-10T22:42:07.113Z,3.43
2018-12-10T22:44:40.900Z,3.67
2018-12-10T22:47:14.779Z,3.20
2018-12-10T22:49:48.822Z,3.17
2018-12-10T22:52:26.789Z,3.30
2018-12-10T22:55:00.736Z,3.60
2018-12-10T22:57:34.687Z,3.50
2018-12-10T23:00:09.072Z,2.80
2018-12-10T23:02:42.403Z,2.87
2018-12-10T23:05:16.510Z,2.60
2018-12-10T23:07:54.456Z,2.63
2018-12-10T23:10:28.484Z,3.63
2018-12-10T23:13:02.580Z,3.10
2018-12-10T23:15:36.395Z,2.87
2018-12-10T23:18:12.458Z,2.80
2018-12-10T23:20:46.291Z,2.63
2018-12-10T23:23:20.207Z,2.93
2018-12-10T23:25:54.116Z,3.03
2018-12-10T23:28:28.037Z,2.23
2018-12-10T23:31:01.931Z,2.30
2018-12-10T23:33:36.064Z,2.40
2018-12-10T23:36:09.366Z,2.30
2018-12-10T23:38:42.601Z,2.60
2018-12-10T23:41:16.411Z,1.80
2018-12-10T23:43:50.379Z,2.17
2018-12-10T23:46:24.304Z,2.47
2018-12-10T23:49:02.375Z,1.90
2018-12-10T23:51:39.860Z,1.90
2018-12-10T23:54:13.395Z,2.07
2018-12-10T23:56:47.371Z,1.90
2018-12-10T23:59:21.364Z,1.90
